sensor_id;sensor_type;location;lat;lon;timestamp;P1;durP1;ratioP1;P2;durP2;ratioP2
16954;SDS011;8594;52.052;8.354;2024-01-27T00:01:14;18.13;;;4.03;;
16954;SDS011;8594;52.052;8.354;2024-01-27T00:03:41;18.70;;;3.30;;
16954;SDS011;8594;52.052;8.354;2024-01-27T00:06:09;21.73;;;4.07;;
16954;SDS011;8594;52.052;8.354;2024-01-27T00:08:36;27.00;;;5.20;;
16954;SDS011;8594;52.052;8.354;2024-01-27T00:11:03;18.33;;;4.20;;
16954;SDS011;8594;52.052;8.354;2024-01-27T00:13:30;25.20;;;3.97;;
16954;SDS011;8594;52.052;8.354;2024-01-27T00:15:57;23.00;;;3.83;;
16954;SDS011;8594;52.052;8.354;2024-01-27T00:18:23;22.20;;;4.23;;
16954;SDS011;8594;52.052;8.354;2024-01-27T00:20:50;30.10;;;4.53;;
16954;SDS011;8594;52.052;8.354;2024-01-27T00:23:18;16.07;;;3.43;;
16954;SDS011;8594;52.052;8.354;2024-01-27T00:25:45;19.97;;;4.10;;
16954;SDS011;8594;52.052;8.354;2024-01-27T00:28:11;21.17;;;4.07;;
16954;SDS011;8594;52.052;8.354;2024-01-27T00:30:38;24.03;;;4.27;;
16954;SDS011;8594;52.052;8.354;2024-01-27T00:33:05;20.07;;;5.37;;
16954;SDS011;8594;52.052;8.354;2024-01-27T00:35:32;25.93;;;4.77;;
16954;SDS011;8594;52.052;8.354;2024-01-27T00:37:58;17.63;;;3.73;;
16954;SDS011;8594;52.052;8.354;2024-01-27T00:40:26;23.67;;;4.07;;
16954;SDS011;8594;52.052;8.354;2024-01-27T00:42:53;19.27;;;4.03;;
16954;SDS011;8594;52.052;8.354;2024-01-27T00:45:20;25.67;;;4.33;;
16954;SDS011;8594;52.052;8.354;2024-01-27T00:47:48;26.87;;;4.20;;
16954;SDS011;8594;52.052;8.354;2024-01-27T00:50:15;17.07;;;4.27;;
16954;SDS011;8594;52.052;8.354;2024-01-27T00:52:42;19.27;;;3.70;;
16954;SDS011;8594;52.052;8.354;2024-01-27T00:55:09;10.60;;;3.57;;
16954;SDS011;8594;52.052;8.354;2024-01-27T00:57:37;22.00;;;4.50;;
16954;SDS011;8594;52.052;8.354;2024-01-27T01:00:04;23.43;;;4.97;;
16954;SDS011;8594;52.052;8.354;2024-01-27T01:02:33;16.03;;;3.47;;
16954;SDS011;8594;52.052;8.354;2024-01-27T01:05:00;21.37;;;4.17;;
16954;SDS011;8594;52.052;8.354;2024-01-27T01:07:28;32.50;;;5.13;;
16954;SDS011;8594;52.052;8.354;2024-01-27T01:09:55;22.60;;;4.33;;
16954;SDS011;8594;52.052;8.354;2024-01-27T01:12:23;21.83;;;3.93;;
16954;SDS011;8594;52.052;8.354;2024-01-27T01:14:51;16.53;;;4.10;;
16954;SDS011;8594;52.052;8.354;2024-01-27T01:17:19;17.17;;;3.87;;
16954;SDS011;8594;52.052;8.354;2024-01-27T01:19:45;24.70;;;4.43;;
16954;SDS011;8594;52.052;8.354;2024-01-27T01:22:12;24.27;;;4.60;;
16954;SDS011;8594;52.052;8.354;2024-01-27T01:24:39;29.60;;;5.13;;
16954;SDS011;8594;52.052;8.354;2024-01-27T01:27:05;17.77;;;4.87;;
16954;SDS011;8594;52.052;8.354;2024-01-27T01:29:32;29.03;;;4.57;;
16954;SDS011;8594;52.052;8.354;2024-01-27T01:32:01;24.03;;;5.03;;
16954;SDS011;8594;52.052;8.354;2024-01-27T01:34:28;20.17;;;4.40;;
16954;SDS011;8594;52.052;8.354;2024-01-27T01:36:55;27.70;;;4.63;;
16954;SDS011;8594;52.052;8.354;2024-01-27T01:39:22;19.07;;;5.00;;
16954;SDS011;8594;52.052;8.354;2024-01-27T01:41:49;24.27;;;4.23;;
16954;SDS011;8594;52.052;8.354;2024-01-27T01:44:16;23.37;;;4.20;;
16954;SDS011;8594;52.052;8.354;2024-01-27T01:46:43;21.80;;;4.13;;
16954;SDS011;8594;52.052;8.354;2024-01-27T01:49:11;19.63;;;3.93;;
16954;SDS011;8594;52.052;8.354;2024-01-27T01:51:37;16.97;;;3.90;;
16954;SDS011;8594;52.052;8.354;2024-01-27T01:54:05;19.43;;;4.17;;
16954;SDS011;8594;52.052;8.354;2024-01-27T01:56:32;21.03;;;4.17;;
16954;SDS011;8594;52.052;8.354;2024-01-27T01:58:59;23.80;;;4.70;;
16954;SDS011;8594;52.052;8.354;2024-01-27T02:01:26;15.10;;;4.03;;
16954;SDS011;8594;52.052;8.354;2024-01-27T02:03:53;19.63;;;4.17;;
16954;SDS011;8594;52.052;8.354;2024-01-27T02:06:21;16.40;;;3.67;;
16954;SDS011;8594;52.052;8.354;2024-01-27T02:08:47;15.93;;;4.33;;
16954;SDS011;8594;52.052;8.354;2024-01-27T02:11:14;24.57;;;5.67;;
16954;SDS011;8594;52.052;8.354;2024-01-27T02:13:41;26.53;;;4.80;;
16954;SDS011;8594;52.052;8.354;2024-01-27T02:16:08;24.13;;;4.70;;
16954;SDS011;8594;52.052;8.354;2024-01-27T02:18:35;18.27;;;5.37;;
16954;SDS011;8594;52.052;8.354;2024-01-27T02:21:02;17.33;;;4.43;;
16954;SDS011;8594;52.052;8.354;2024-01-27T02:23:30;21.70;;;4.57;;
16954;SDS011;8594;52.052;8.354;2024-01-27T02:25:58;20.70;;;4.70;;
16954;SDS011;8594;52.052;8.354;2024-01-27T02:28:25;18.43;;;5.27;;
16954;SDS011;8594;52.052;8.354;2024-01-27T02:30:52;22.93;;;4.47;;
16954;SDS011;8594;52.052;8.354;2024-01-27T02:33:18;23.17;;;5.30;;
16954;SDS011;8594;52.052;8.354;2024-01-27T02:35:46;21.83;;;4.53;;
16954;SDS011;8594;52.052;8.354;2024-01-27T02:38:13;18.33;;;3.83;;
16954;SDS011;8594;52.052;8.354;2024-01-27T02:40:40;28.53;;;4.70;;
16954;SDS011;8594;52.052;8.354;2024-01-27T02:43:08;27.97;;;4.83;;
16954;SDS011;8594;52.052;8.354;2024-01-27T02:45:34;16.37;;;3.97;;
16954;SDS011;8594;52.052;8.354;2024-01-27T02:48:01;26.77;;;4.50;;
16954;SDS011;8594;52.052;8.354;2024-01-27T02:50:28;17.27;;;4.50;;
16954;SDS011;8594;52.052;8.354;2024-01-27T02:52:55;15.93;;;4.17;;
16954;SDS011;8594;52.052;8.354;2024-01-27T02:55:22;21.07;;;4.57;;
16954;SDS011;8594;52.052;8.354;2024-01-27T02:57:48;15.83;;;4.57;;
16954;SDS011;8594;52.052;8.354;2024-01-27T03:00:16;19.57;;;4.57;;
16954;SDS011;8594;52.052;8.354;2024-01-27T03:02:44;18.37;;;4.63;;
16954;SDS011;8594;52.052;8.354;2024-01-27T03:05:10;15.63;;;4.20;;
16954;SDS011;8594;52.052;8.354;2024-01-27T03:07:39;17.90;;;4.63;;
16954;SDS011;8594;52.052;8.354;2024-01-27T03:10:05;27.57;;;4.93;;
16954;SDS011;8594;52.052;8.354;2024-01-27T03:12:33;22.50;;;6.00;;
16954;SDS011;8594;52.052;8.354;2024-01-27T03:14:59;18.60;;;5.47;;
16954;SDS011;8594;52.052;8.354;2024-01-27T03:17:27;21.30;;;4.90;;
16954;SDS011;8594;52.052;8.354;2024-01-27T03:19:54;29.10;;;5.10;;
16954;SDS011;8594;52.052;8.354;2024-01-27T03:22:21;22.87;;;5.07;;
16954;SDS011;8594;52.052;8.354;2024-01-27T03:24:47;24.33;;;4.33;;
16954;SDS011;8594;52.052;8.354;2024-01-27T03:27:16;22.17;;;4.30;;
16954;SDS011;8594;52.052;8.354;2024-01-27T03:29:43;25.53;;;5.10;;
16954;SDS011;8594;52.052;8.354;2024-01-27T03:32:10;25.67;;;4.87;;
16954;SDS011;8594;52.052;8.354;2024-01-27T03:34:39;18.87;;;5.57;;
16954;SDS011;8594;52.052;8.354;2024-01-27T03:37:10;19.13;;;5.10;;
16954;SDS011;8594;52.052;8.354;2024-01-27T03:39:37;26.80;;;5.17;;
16954;SDS011;8594;52.052;8.354;2024-01-27T03:42:06;22.20;;;5.20;;
16954;SDS011;8594;52.052;8.354;2024-01-27T03:44:33;16.90;;;5.00;;
16954;SDS011;8594;52.052;8.354;2024-01-27T03:47:00;24.83;;;5.70;;
16954;SDS011;8594;52.052;8.354;2024-01-27T03:49:26;17.60;;;5.30;;
16954;SDS011;8594;52.052;8.354;2024-01-27T03:51:54;22.60;;;5.43;;
16954;SDS011;8594;52.052;8.354;2024-01-27T03:54:21;24.13;;;5.57;;
16954;SDS011;8594;52.052;8.354;2024-01-27T03:56:48;20.67;;;4.90;;
16954;SDS011;8594;52.052;8.354;2024-01-27T03:59:15;16.00;;;5.97;;
16954;SDS011;8594;52.052;8.354;2024-01-27T04:01:42;25.00;;;5.83;;
16954;SDS011;8594;52.052;8.354;2024-01-27T04:04:10;16.10;;;5.03;;
16954;SDS011;8594;52.052;8.354;2024-01-27T04:06:36;22.40;;;5.73;;
16954;SDS011;8594;52.052;8.354;2024-01-27T04:09:05;29.07;;;6.17;;
16954;SDS011;8594;52.052;8.354;2024-01-27T04:11:34;17.30;;;5.17;;
16954;SDS011;8594;52.052;8.354;2024-01-27T04:14:01;19.60;;;5.43;;
16954;SDS011;8594;52.052;8.354;2024-01-27T04:16:29;15.93;;;5.97;;
16954;SDS011;8594;52.052;8.354;2024-01-27T04:18:56;16.73;;;5.17;;
16954;SDS011;8594;52.052;8.354;2024-01-27T04:21:23;22.03;;;5.43;;
16954;SDS011;8594;52.052;8.354;2024-01-27T04:23:50;23.07;;;5.57;;
16954;SDS011;8594;52.052;8.354;2024-01-27T04:26:18;27.97;;;5.90;;
16954;SDS011;8594;52.052;8.354;2024-01-27T04:28:44;37.17;;;5.77;;
16954;SDS011;8594;52.052;8.354;2024-01-27T04:31:11;16.47;;;5.43;;
16954;SDS011;8594;52.052;8.354;2024-01-27T04:33:38;24.57;;;5.70;;
16954;SDS011;8594;52.052;8.354;2024-01-27T04:36:05;21.80;;;6.23;;
16954;SDS011;8594;52.052;8.354;2024-01-27T04:38:33;20.43;;;5.83;;
16954;SDS011;8594;52.052;8.354;2024-01-27T04:41:00;22.07;;;6.07;;
16954;SDS011;8594;52.052;8.354;2024-01-27T04:43:29;17.60;;;5.53;;
16954;SDS011;8594;52.052;8.354;2024-01-27T04:45:55;23.63;;;5.90;;
16954;SDS011;8594;52.052;8.354;2024-01-27T04:48:22;21.03;;;5.17;;
16954;SDS011;8594;52.052;8.354;2024-01-27T04:50:49;22.63;;;5.07;;
16954;SDS011;8594;52.052;8.354;2024-01-27T04:53:15;20.53;;;5.33;;
16954;SDS011;8594;52.052;8.354;2024-01-27T04:55:42;19.13;;;5.77;;
16954;SDS011;8594;52.052;8.354;2024-01-27T04:58:09;20.40;;;5.77;;
16954;SDS011;8594;52.052;8.354;2024-01-27T05:00:37;14.67;;;5.20;;
16954;SDS011;8594;52.052;8.354;2024-01-27T05:03:04;19.70;;;5.40;;
16954;SDS011;8594;52.052;8.354;2024-01-27T05:05:32;20.03;;;5.80;;
16954;SDS011;8594;52.052;8.354;2024-01-27T05:07:59;23.40;;;5.90;;
16954;SDS011;8594;52.052;8.354;2024-01-27T05:10:26;26.10;;;5.77;;
16954;SDS011;8594;52.052;8.354;2024-01-27T05:12:52;30.63;;;5.57;;
16954;SDS011;8594;52.052;8.354;2024-01-27T05:15:21;21.00;;;6.20;;
16954;SDS011;8594;52.052;8.354;2024-01-27T05:17:49;24.97;;;6.17;;
16954;SDS011;8594;52.052;8.354;2024-01-27T05:20:15;21.77;;;5.53;;
16954;SDS011;8594;52.052;8.354;2024-01-27T05:22:43;16.73;;;5.10;;
16954;SDS011;8594;52.052;8.354;2024-01-27T05:25:09;14.57;;;5.23;;
16954;SDS011;8594;52.052;8.354;2024-01-27T05:27:36;15.70;;;5.63;;
16954;SDS011;8594;52.052;8.354;2024-01-27T05:30:04;20.47;;;5.50;;
16954;SDS011;8594;52.052;8.354;2024-01-27T05:32:32;16.60;;;5.47;;
16954;SDS011;8594;52.052;8.354;2024-01-27T05:35:00;25.60;;;5.97;;
16954;SDS011;8594;52.052;8.354;2024-01-27T05:37:28;20.43;;;5.57;;
16954;SDS011;8594;52.052;8.354;2024-01-27T05:39:55;20.50;;;5.90;;
16954;SDS011;8594;52.052;8.354;2024-01-27T05:42:21;25.13;;;6.23;;
16954;SDS011;8594;52.052;8.354;2024-01-27T05:44:48;20.10;;;6.67;;
16954;SDS011;8594;52.052;8.354;2024-01-27T05:47:15;28.87;;;7.47;;
16954;SDS011;8594;52.052;8.354;2024-01-27T05:49:42;30.87;;;7.77;;
16954;SDS011;8594;52.052;8.354;2024-01-27T05:52:10;17.90;;;7.13;;
16954;SDS011;8594;52.052;8.354;2024-01-27T05:54:36;23.27;;;7.20;;
16954;SDS011;8594;52.052;8.354;2024-01-27T05:57:06;32.27;;;9.03;;
16954;SDS011;8594;52.052;8.354;2024-01-27T05:59:33;24.30;;;7.13;;
16954;SDS011;8594;52.052;8.354;2024-01-27T06:02:00;25.17;;;7.33;;
16954;SDS011;8594;52.052;8.354;2024-01-27T06:04:27;24.20;;;7.20;;
16954;SDS011;8594;52.052;8.354;2024-01-27T06:06:56;26.80;;;7.27;;
16954;SDS011;8594;52.052;8.354;2024-01-27T06:09:24;26.10;;;7.93;;
16954;SDS011;8594;52.052;8.354;2024-01-27T06:11:51;28.23;;;7.40;;
16954;SDS011;8594;52.052;8.354;2024-01-27T06:14:17;17.37;;;6.67;;
16954;SDS011;8594;52.052;8.354;2024-01-27T06:16:44;26.00;;;7.33;;
16954;SDS011;8594;52.052;8.354;2024-01-27T06:19:11;25.07;;;7.20;;
16954;SDS011;8594;52.052;8.354;2024-01-27T06:21:37;28.53;;;7.50;;
16954;SDS011;8594;52.052;8.354;2024-01-27T06:24:04;26.00;;;7.10;;
16954;SDS011;8594;52.052;8.354;2024-01-27T06:26:33;24.33;;;6.83;;
16954;SDS011;8594;52.052;8.354;2024-01-27T06:28:59;21.63;;;7.87;;
16954;SDS011;8594;52.052;8.354;2024-01-27T06:31:27;21.97;;;8.53;;
16954;SDS011;8594;52.052;8.354;2024-01-27T06:33:54;26.57;;;8.57;;
16954;SDS011;8594;52.052;8.354;2024-01-27T06:36:21;23.93;;;8.40;;
16954;SDS011;8594;52.052;8.354;2024-01-27T06:38:49;34.43;;;8.23;;
16954;SDS011;8594;52.052;8.354;2024-01-27T06:41:16;30.67;;;8.93;;
16954;SDS011;8594;52.052;8.354;2024-01-27T06:43:44;27.80;;;8.57;;
16954;SDS011;8594;52.052;8.354;2024-01-27T06:46:11;41.80;;;10.17;;
16954;SDS011;8594;52.052;8.354;2024-01-27T06:48:38;28.13;;;10.70;;
16954;SDS011;8594;52.052;8.354;2024-01-27T06:51:05;29.83;;;10.33;;
16954;SDS011;8594;52.052;8.354;2024-01-27T06:53:32;27.57;;;9.73;;
16954;SDS011;8594;52.052;8.354;2024-01-27T06:55:59;30.40;;;9.97;;
16954;SDS011;8594;52.052;8.354;2024-01-27T06:58:25;21.90;;;9.63;;
16954;SDS011;8594;52.052;8.354;2024-01-27T07:00:53;20.53;;;9.57;;
16954;SDS011;8594;52.052;8.354;2024-01-27T07:03:20;33.37;;;11.27;;
16954;SDS011;8594;52.052;8.354;2024-01-27T07:05:47;31.47;;;10.20;;
16954;SDS011;8594;52.052;8.354;2024-01-27T07:08:14;28.53;;;9.70;;
16954;SDS011;8594;52.052;8.354;2024-01-27T07:10:41;37.57;;;9.80;;
16954;SDS011;8594;52.052;8.354;2024-01-27T07:13:08;29.00;;;10.23;;
16954;SDS011;8594;52.052;8.354;2024-01-27T07:15:35;29.47;;;9.33;;
16954;SDS011;8594;52.052;8.354;2024-01-27T07:18:04;30.23;;;10.30;;
16954;SDS011;8594;52.052;8.354;2024-01-27T07:20:32;29.63;;;10.37;;
16954;SDS011;8594;52.052;8.354;2024-01-27T07:22:59;34.53;;;10.93;;
16954;SDS011;8594;52.052;8.354;2024-01-27T07:25:26;31.13;;;10.97;;
16954;SDS011;8594;52.052;8.354;2024-01-27T07:27:53;35.93;;;10.60;;
16954;SDS011;8594;52.052;8.354;2024-01-27T07:30:20;26.90;;;10.00;;
16954;SDS011;8594;52.052;8.354;2024-01-27T07:32:46;25.23;;;9.93;;
16954;SDS011;8594;52.052;8.354;2024-01-27T07:35:15;30.43;;;10.30;;
16954;SDS011;8594;52.052;8.354;2024-01-27T07:37:41;33.33;;;9.67;;
16954;SDS011;8594;52.052;8.354;2024-01-27T07:40:09;29.13;;;9.43;;
16954;SDS011;8594;52.052;8.354;2024-01-27T07:42:36;32.77;;;11.03;;
16954;SDS011;8594;52.052;8.354;2024-01-27T07:45:04;31.80;;;11.60;;
16954;SDS011;8594;52.052;8.354;2024-01-27T07:47:32;28.53;;;11.83;;
16954;SDS011;8594;52.052;8.354;2024-01-27T07:49:58;25.17;;;10.77;;
16954;SDS011;8594;52.052;8.354;2024-01-27T07:52:26;24.90;;;11.27;;
16954;SDS011;8594;52.052;8.354;2024-01-27T07:54:53;35.27;;;12.17;;
16954;SDS011;8594;52.052;8.354;2024-01-27T07:57:20;31.27;;;10.90;;
16954;SDS011;8594;52.052;8.354;2024-01-27T07:59:48;27.07;;;10.57;;
16954;SDS011;8594;52.052;8.354;2024-01-27T08:02:14;27.77;;;10.23;;
16954;SDS011;8594;52.052;8.354;2024-01-27T08:04:41;30.87;;;9.67;;
16954;SDS011;8594;52.052;8.354;2024-01-27T08:07:08;27.23;;;9.43;;
16954;SDS011;8594;52.052;8.354;2024-01-27T08:09:36;24.80;;;9.70;;
16954;SDS011;8594;52.052;8.354;2024-01-27T08:12:04;28.53;;;10.10;;
16954;SDS011;8594;52.052;8.354;2024-01-27T08:14:32;33.83;;;9.93;;
16954;SDS011;8594;52.052;8.354;2024-01-27T08:17:00;23.70;;;8.40;;
16954;SDS011;8594;52.052;8.354;2024-01-27T08:19:28;29.63;;;9.33;;
16954;SDS011;8594;52.052;8.354;2024-01-27T08:21:55;20.87;;;8.40;;
16954;SDS011;8594;52.052;8.354;2024-01-27T08:24:21;21.63;;;8.47;;
16954;SDS011;8594;52.052;8.354;2024-01-27T08:26:50;20.40;;;8.13;;
16954;SDS011;8594;52.052;8.354;2024-01-27T08:29:17;21.27;;;8.53;;
16954;SDS011;8594;52.052;8.354;2024-01-27T08:31:43;23.37;;;8.30;;
16954;SDS011;8594;52.052;8.354;2024-01-27T08:34:10;16.47;;;7.67;;
16954;SDS011;8594;52.052;8.354;2024-01-27T08:36:38;22.83;;;7.70;;
16954;SDS011;8594;52.052;8.354;2024-01-27T08:39:05;20.37;;;8.00;;
16954;SDS011;8594;52.052;8.354;2024-01-27T08:41:33;22.17;;;8.03;;
16954;SDS011;8594;52.052;8.354;2024-01-27T08:44:02;23.67;;;8.27;;
16954;SDS011;8594;52.052;8.354;2024-01-27T08:46:28;21.77;;;8.87;;
16954;SDS011;8594;52.052;8.354;2024-01-27T08:48:55;22.33;;;8.80;;
16954;SDS011;8594;52.052;8.354;2024-01-27T08:51:22;25.43;;;8.93;;
16954;SDS011;8594;52.052;8.354;2024-01-27T08:53:49;23.13;;;8.87;;
16954;SDS011;8594;52.052;8.354;2024-01-27T08:56:16;28.70;;;8.73;;
16954;SDS011;8594;52.052;8.354;2024-01-27T08:58:43;17.93;;;8.20;;
16954;SDS011;8594;52.052;8.354;2024-01-27T09:01:15;18.73;;;7.67;;
16954;SDS011;8594;52.052;8.354;2024-01-27T09:03:42;22.10;;;7.50;;
16954;SDS011;8594;52.052;8.354;2024-01-27T09:06:09;25.17;;;8.00;;
16954;SDS011;8594;52.052;8.354;2024-01-27T09:08:36;23.60;;;8.53;;
16954;SDS011;8594;52.052;8.354;2024-01-27T09:11:03;21.90;;;7.70;;
16954;SDS011;8594;52.052;8.354;2024-01-27T09:13:30;19.00;;;7.03;;
16954;SDS011;8594;52.052;8.354;2024-01-27T09:15:57;24.10;;;7.77;;
16954;SDS011;8594;52.052;8.354;2024-01-27T09:18:27;19.50;;;7.80;;
16954;SDS011;8594;52.052;8.354;2024-01-27T09:20:53;23.70;;;8.07;;
16954;SDS011;8594;52.052;8.354;2024-01-27T09:23:20;20.13;;;8.00;;
16954;SDS011;8594;52.052;8.354;2024-01-27T09:25:47;21.67;;;8.23;;
16954;SDS011;8594;52.052;8.354;2024-01-27T09:28:14;23.83;;;7.33;;
16954;SDS011;8594;52.052;8.354;2024-01-27T09:30:41;24.13;;;8.50;;
16954;SDS011;8594;52.052;8.354;2024-01-27T09:33:07;21.27;;;7.33;;
16954;SDS011;8594;52.052;8.354;2024-01-27T09:35:35;24.10;;;6.63;;
16954;SDS011;8594;52.052;8.354;2024-01-27T09:38:02;22.80;;;7.77;;
16954;SDS011;8594;52.052;8.354;2024-01-27T09:40:29;19.27;;;7.80;;
16954;SDS011;8594;52.052;8.354;2024-01-27T09:42:58;18.73;;;6.57;;
16954;SDS011;8594;52.052;8.354;2024-01-27T09:45:25;21.87;;;7.63;;
16954;SDS011;8594;52.052;8.354;2024-01-27T09:47:53;25.60;;;7.37;;
16954;SDS011;8594;52.052;8.354;2024-01-27T09:50:22;21.23;;;7.83;;
16954;SDS011;8594;52.052;8.354;2024-01-27T09:52:51;25.17;;;7.77;;
16954;SDS011;8594;52.052;8.354;2024-01-27T09:55:18;19.00;;;8.43;;
16954;SDS011;8594;52.052;8.354;2024-01-27T09:57:45;23.60;;;8.17;;
16954;SDS011;8594;52.052;8.354;2024-01-27T10:00:13;23.43;;;8.03;;
16954;SDS011;8594;52.052;8.354;2024-01-27T10:02:42;22.57;;;7.90;;
16954;SDS011;8594;52.052;8.354;2024-01-27T10:05:11;26.83;;;8.83;;
16954;SDS011;8594;52.052;8.354;2024-01-27T10:07:39;18.63;;;8.40;;
16954;SDS011;8594;52.052;8.354;2024-01-27T10:10:08;22.13;;;7.73;;
16954;SDS011;8594;52.052;8.354;2024-01-27T10:12:36;26.03;;;8.10;;
16954;SDS011;8594;52.052;8.354;2024-01-27T10:15:17;20.90;;;7.80;;
16954;SDS011;8594;52.052;8.354;2024-01-27T10:17:45;29.30;;;8.30;;
16954;SDS011;8594;52.052;8.354;2024-01-27T10:20:12;20.03;;;7.37;;
16954;SDS011;8594;52.052;8.354;2024-01-27T10:22:40;23.53;;;7.57;;
16954;SDS011;8594;52.052;8.354;2024-01-27T10:25:11;17.30;;;7.53;;
16954;SDS011;8594;52.052;8.354;2024-01-27T10:27:38;27.20;;;7.87;;
16954;SDS011;8594;52.052;8.354;2024-01-27T10:30:07;19.00;;;7.43;;
16954;SDS011;8594;52.052;8.354;2024-01-27T10:32:43;18.47;;;7.60;;
16954;SDS011;8594;52.052;8.354;2024-01-27T10:35:20;23.67;;;7.77;;
16954;SDS011;8594;52.052;8.354;2024-01-27T10:37:50;21.73;;;7.57;;
16954;SDS011;8594;52.052;8.354;2024-01-27T10:40:20;20.83;;;8.23;;
16954;SDS011;8594;52.052;8.354;2024-01-27T10:42:51;26.67;;;7.40;;
16954;SDS011;8594;52.052;8.354;2024-01-27T10:45:27;18.60;;;7.60;;
16954;SDS011;8594;52.052;8.354;2024-01-27T10:48:01;20.37;;;7.20;;
16954;SDS011;8594;52.052;8.354;2024-01-27T10:50:30;23.67;;;7.27;;
16954;SDS011;8594;52.052;8.354;2024-01-27T10:53:02;21.23;;;7.63;;
16954;SDS011;8594;52.052;8.354;2024-01-27T10:55:32;28.47;;;7.97;;
16954;SDS011;8594;52.052;8.354;2024-01-27T10:58:01;17.00;;;7.00;;
16954;SDS011;8594;52.052;8.354;2024-01-27T11:00:29;20.17;;;7.07;;
16954;SDS011;8594;52.052;8.354;2024-01-27T11:02:57;24.93;;;7.23;;
16954;SDS011;8594;52.052;8.354;2024-01-27T11:05:27;23.73;;;7.10;;
16954;SDS011;8594;52.052;8.354;2024-01-27T11:07:54;20.47;;;7.13;;
16954;SDS011;8594;52.052;8.354;2024-01-27T11:10:23;24.43;;;6.50;;
16954;SDS011;8594;52.052;8.354;2024-01-27T11:12:53;20.93;;;6.73;;
16954;SDS011;8594;52.052;8.354;2024-01-27T11:15:20;21.97;;;7.03;;
16954;SDS011;8594;52.052;8.354;2024-01-27T11:17:47;22.83;;;6.57;;
16954;SDS011;8594;52.052;8.354;2024-01-27T11:20:15;23.23;;;6.43;;
16954;SDS011;8594;52.052;8.354;2024-01-27T11:22:42;22.17;;;7.40;;
16954;SDS011;8594;52.052;8.354;2024-01-27T11:25:14;25.47;;;7.73;;
16954;SDS011;8594;52.052;8.354;2024-01-27T11:27:44;19.87;;;6.20;;
16954;SDS011;8594;52.052;8.354;2024-01-27T11:30:25;22.53;;;6.43;;
16954;SDS011;8594;52.052;8.354;2024-01-27T11:32:54;17.60;;;6.43;;
16954;SDS011;8594;52.052;8.354;2024-01-27T11:35:22;28.90;;;6.83;;
16954;SDS011;8594;52.052;8.354;2024-01-27T11:37:49;23.13;;;6.00;;
16954;SDS011;8594;52.052;8.354;2024-01-27T11:40:16;27.13;;;6.47;;
16954;SDS011;8594;52.052;8.354;2024-01-27T11:42:43;24.40;;;6.63;;
16954;SDS011;8594;52.052;8.354;2024-01-27T11:45:09;18.90;;;5.93;;
16954;SDS011;8594;52.052;8.354;2024-01-27T11:47:38;16.90;;;6.93;;
16954;SDS011;8594;52.052;8.354;2024-01-27T11:50:05;22.80;;;5.73;;
16954;SDS011;8594;52.052;8.354;2024-01-27T11:52:32;25.60;;;7.07;;
16954;SDS011;8594;52.052;8.354;2024-01-27T11:55:00;23.53;;;5.97;;
16954;SDS011;8594;52.052;8.354;2024-01-27T11:57:27;30.43;;;6.83;;
16954;SDS011;8594;52.052;8.354;2024-01-27T11:59:54;25.00;;;5.90;;
16954;SDS011;8594;52.052;8.354;2024-01-27T12:02:22;22.03;;;5.73;;
16954;SDS011;8594;52.052;8.354;2024-01-27T12:04:50;25.20;;;7.23;;
16954;SDS011;8594;52.052;8.354;2024-01-27T12:07:17;22.97;;;6.67;;
16954;SDS011;8594;52.052;8.354;2024-01-27T12:09:46;21.87;;;6.00;;
16954;SDS011;8594;52.052;8.354;2024-01-27T12:12:14;24.63;;;6.17;;
16954;SDS011;8594;52.052;8.354;2024-01-27T12:14:44;19.90;;;5.50;;
16954;SDS011;8594;52.052;8.354;2024-01-27T12:17:12;20.67;;;5.77;;
16954;SDS011;8594;52.052;8.354;2024-01-27T12:19:39;13.87;;;4.83;;
16954;SDS011;8594;52.052;8.354;2024-01-27T12:22:21;22.33;;;5.87;;
16954;SDS011;8594;52.052;8.354;2024-01-27T12:24:50;19.80;;;5.97;;
16954;SDS011;8594;52.052;8.354;2024-01-27T12:27:17;21.00;;;5.60;;
16954;SDS011;8594;52.052;8.354;2024-01-27T12:29:46;57.13;;;8.63;;
16954;SDS011;8594;52.052;8.354;2024-01-27T12:32:14;16.93;;;5.37;;
16954;SDS011;8594;52.052;8.354;2024-01-27T12:34:41;23.23;;;5.40;;
16954;SDS011;8594;52.052;8.354;2024-01-27T12:37:08;19.47;;;4.80;;
16954;SDS011;8594;52.052;8.354;2024-01-27T12:39:41;22.17;;;4.90;;
16954;SDS011;8594;52.052;8.354;2024-01-27T12:42:09;20.13;;;5.10;;
16954;SDS011;8594;52.052;8.354;2024-01-27T12:44:36;18.93;;;5.60;;
16954;SDS011;8594;52.052;8.354;2024-01-27T12:47:03;22.33;;;5.93;;
16954;SDS011;8594;52.052;8.354;2024-01-27T12:49:31;22.33;;;5.53;;
16954;SDS011;8594;52.052;8.354;2024-01-27T12:51:57;24.17;;;5.13;;
16954;SDS011;8594;52.052;8.354;2024-01-27T12:54:24;17.57;;;4.83;;
16954;SDS011;8594;52.052;8.354;2024-01-27T12:56:52;16.70;;;4.50;;
16954;SDS011;8594;52.052;8.354;2024-01-27T12:59:19;19.17;;;4.03;;
16954;SDS011;8594;52.052;8.354;2024-01-27T13:01:46;16.50;;;5.30;;
16954;SDS011;8594;52.052;8.354;2024-01-27T13:04:13;18.67;;;5.10;;
16954;SDS011;8594;52.052;8.354;2024-01-27T13:06:39;29.53;;;6.40;;
16954;SDS011;8594;52.052;8.354;2024-01-27T13:09:07;15.43;;;4.27;;
16954;SDS011;8594;52.052;8.354;2024-01-27T13:11:37;24.20;;;4.90;;
16954;SDS011;8594;52.052;8.354;2024-01-27T13:14:05;25.83;;;5.57;;
16954;SDS011;8594;52.052;8.354;2024-01-27T13:16:34;21.73;;;5.13;;
16954;SDS011;8594;52.052;8.354;2024-01-27T13:19:01;21.20;;;5.00;;
16954;SDS011;8594;52.052;8.354;2024-01-27T13:21:28;18.40;;;4.70;;
16954;SDS011;8594;52.052;8.354;2024-01-27T13:23:54;16.93;;;5.00;;
16954;SDS011;8594;52.052;8.354;2024-01-27T13:26:21;19.20;;;4.97;;
16954;SDS011;8594;52.052;8.354;2024-01-27T13:28:48;22.77;;;5.70;;
16954;SDS011;8594;52.052;8.354;2024-01-27T13:31:16;23.10;;;5.43;;
16954;SDS011;8594;52.052;8.354;2024-01-27T13:33:43;15.17;;;4.53;;
16954;SDS011;8594;52.052;8.354;2024-01-27T13:36:10;21.60;;;4.50;;
16954;SDS011;8594;52.052;8.354;2024-01-27T13:38:37;20.20;;;4.80;;
16954;SDS011;8594;52.052;8.354;2024-01-27T13:41:04;15.83;;;4.63;;
16954;SDS011;8594;52.052;8.354;2024-01-27T13:43:30;18.17;;;4.73;;
16954;SDS011;8594;52.052;8.354;2024-01-27T13:45:57;20.20;;;4.83;;
16954;SDS011;8594;52.052;8.354;2024-01-27T13:48:25;26.50;;;5.17;;
16954;SDS011;8594;52.052;8.354;2024-01-27T13:50:52;20.67;;;4.87;;
16954;SDS011;8594;52.052;8.354;2024-01-27T13:53:19;19.17;;;4.77;;
16954;SDS011;8594;52.052;8.354;2024-01-27T13:55:46;18.23;;;5.00;;
16954;SDS011;8594;52.052;8.354;2024-01-27T13:58:12;21.70;;;5.67;;
16954;SDS011;8594;52.052;8.354;2024-01-27T14:00:39;17.20;;;4.73;;
16954;SDS011;8594;52.052;8.354;2024-01-27T14:03:06;19.00;;;4.87;;
16954;SDS011;8594;52.052;8.354;2024-01-27T14:05:35;21.27;;;4.77;;
16954;SDS011;8594;52.052;8.354;2024-01-27T14:08:03;16.10;;;4.30;;
16954;SDS011;8594;52.052;8.354;2024-01-27T14:10:31;20.83;;;4.67;;
16954;SDS011;8594;52.052;8.354;2024-01-27T14:13:00;34.57;;;4.80;;
16954;SDS011;8594;52.052;8.354;2024-01-27T14:15:29;15.10;;;4.43;;
16954;SDS011;8594;52.052;8.354;2024-01-27T14:17:56;19.07;;;4.93;;
16954;SDS011;8594;52.052;8.354;2024-01-27T14:20:23;21.50;;;5.00;;
16954;SDS011;8594;52.052;8.354;2024-01-27T14:22:51;20.50;;;4.53;;
16954;SDS011;8594;52.052;8.354;2024-01-27T14:25:17;19.57;;;4.70;;
16954;SDS011;8594;52.052;8.354;2024-01-27T14:27:44;19.57;;;4.60;;
16954;SDS011;8594;52.052;8.354;2024-01-27T14:30:11;15.70;;;4.77;;
16954;SDS011;8594;52.052;8.354;2024-01-27T14:32:39;19.07;;;4.93;;
16954;SDS011;8594;52.052;8.354;2024-01-27T14:35:06;19.97;;;4.80;;
16954;SDS011;8594;52.052;8.354;2024-01-27T14:37:33;27.43;;;4.70;;
16954;SDS011;8594;52.052;8.354;2024-01-27T14:40:01;22.60;;;4.60;;
16954;SDS011;8594;52.052;8.354;2024-01-27T14:42:30;16.20;;;4.50;;
16954;SDS011;8594;52.052;8.354;2024-01-27T14:44:56;20.00;;;5.30;;
16954;SDS011;8594;52.052;8.354;2024-01-27T14:47:23;18.83;;;4.60;;
16954;SDS011;8594;52.052;8.354;2024-01-27T14:49:50;19.70;;;4.20;;